Time;durP1;ratioP1;P1;durP2;ratioP2;P2;SDS_P1;SDS_P2;PMS_P1;PMS_P2;Temp;Humidity;BMP_temperature;BMP_pressure;BME280_temperature;BME280_humidity;BME280_pressure;Samples;Min_cycle;Max_cycle;Signal;HPM_P1;HPM_P2
2023/09/15 00:01:49;;;;;;;5.43;3.13;;;11.70;99.90;;;;;;4982824;28;20301;-78
2023/09/15 00:04:15;;;;;;;5.27;2.80;;;11.60;99.90;;;;;;4982900;28;20174;-79
2023/09/15 00:06:40;;;;;;;6.23;3.00;;;11.60;99.90;;;;;;4980844;28;20184;-78
2023/09/15 00:09:18;;;;;;;3.97;2.90;;;11.60;99.90;;;;;;4982133;28;20628;-79
2023/09/15 00:11:47;;;;;;;4.07;2.63;;;11.60;99.90;;;;;;4982282;28;20217;-78
2023/09/15 00:14:14;;;;;;;6.40;3.40;;;11.60;99.90;;;;;;4982166;28;20183;-78
2023/09/15 00:16:42;;;;;;;7.47;3.73;;;11.60;99.90;;;;;;4982953;28;20170;-78
2023/09/15 00:19:13;;;;;;;5.13;3.20;;;11.50;99.90;;;;;;4981416;28;20228;-78
2023/09/15 00:21:39;;;;;;;3.60;3.07;;;11.50;99.90;;;;;;4980501;28;20186;-79
2023/09/15 00:24:05;;;;;;;5.60;3.63;;;11.50;99.90;;;;;;4979902;28;20179;-79
2023/09/15 00:26:32;;;;;;;6.27;3.30;;;11.50;99.90;;;;;;4980807;28;20185;-79
2023/09/15 00:29:02;;;;;;;7.93;3.33;;;11.40;99.90;;;;;;4979589;28;20684;-78
2023/09/15 00:31:28;;;;;;;4.57;3.27;;;11.40;99.90;;;;;;4980709;28;20198;-78
2023/09/15 00:33:54;;;;;;;7.33;2.80;;;11.40;99.90;;;;;;4981038;28;20210;-79
2023/09/15 00:36:19;;;;;;;4.80;3.30;;;11.40;99.90;;;;;;4982306;28;20182;-79
2023/09/15 00:38:45;;;;;;;7.60;3.10;;;11.40;99.90;;;;;;4979917;28;20221;-79
2023/09/15 00:41:12;;;;;;;8.17;3.30;;;11.30;99.90;;;;;;4981569;28;20547;-78
2023/09/15 00:43:38;;;;;;;3.43;2.70;;;11.30;99.90;;;;;;4979524;28;20175;-79
2023/09/15 00:46:04;;;;;;;5.00;2.93;;;11.30;99.90;;;;;;4981200;28;20221;-78
2023/09/15 00:48:29;;;;;;;5.07;3.00;;;11.30;99.90;;;;;;4980443;28;20174;-78
2023/09/15 00:50:56;;;;;;;5.33;3.20;;;11.20;99.90;;;;;;4980493;28;20309;-79
2023/09/15 00:53:22;;;;;;;6.00;3.23;;;11.20;99.90;;;;;;4979194;28;20178;-78
2023/09/15 00:55:51;;;;;;;5.77;3.07;;;11.20;99.90;;;;;;4979552;28;20174;-79
2023/09/15 00:58:18;;;;;;;4.83;3.10;;;11.20;99.90;;;;;;4980925;28;20258;-79
2023/09/15 01:00:45;;;;;;;3.93;2.87;;;11.10;99.90;;;;;;4981122;28;20171;-80
2023/09/15 01:03:12;;;;;;;3.73;3.00;;;11.10;99.90;;;;;;4980837;28;20163;-79
2023/09/15 01:05:39;;;;;;;3.73;3.07;;;11.10;99.90;;;;;;4978465;28;20603;-79
2023/09/15 01:08:05;;;;;;;4.80;2.87;;;11.10;99.90;;;;;;4980161;28;20273;-79
2023/09/15 01:10:30;;;;;;;8.03;3.30;;;11.10;99.90;;;;;;4980778;28;20197;-79
2023/09/15 01:12:56;;;;;;;4.90;3.43;;;11.00;99.90;;;;;;4980362;28;20289;-79
2023/09/15 01:15:29;;;;;;;5.17;2.83;;;11.00;99.90;;;;;;4979683;28;20178;-79
2023/09/15 01:18:16;;;;;;;5.53;3.10;;;11.00;99.90;;;;;;4981608;28;20174;-79
2023/09/15 01:21:13;;;;;;;5.00;2.60;;;11.00;99.90;;;;;;4981405;28;20605;-79
2023/09/15 01:24:17;;;;;;;5.93;2.47;;;11.00;99.90;;;;;;4982134;28;20170;-78
2023/09/15 01:27:01;;;;;;;4.27;2.63;;;10.90;99.90;;;;;;4979960;28;20719;-78
2023/09/15 01:29:51;;;;;;;4.00;2.63;;;10.90;99.90;;;;;;4982253;28;20532;-78
2023/09/15 01:32:19;;;;;;;4.87;2.77;;;10.80;99.90;;;;;;4982930;28;20209;-78
2023/09/15 01:34:52;;;;;;;5.30;2.97;;;10.70;99.90;;;;;;4983234;28;20281;-79
2023/09/15 01:37:18;;;;;;;4.27;3.00;;;10.80;99.90;;;;;;4979753;28;20269;-78
2023/09/15 01:39:44;;;;;;;5.03;2.47;;;10.80;99.90;;;;;;4978867;28;20264;-79
2023/09/15 01:42:09;;;;;;;5.60;2.80;;;10.80;99.90;;;;;;4979507;28;20190;-78
2023/09/15 01:44:35;;;;;;;5.43;2.90;;;10.80;99.90;;;;;;4980275;28;20528;-79
2023/09/15 01:47:01;;;;;;;4.07;2.77;;;10.70;99.90;;;;;;4978196;28;20185;-79
2023/09/15 01:49:27;;;;;;;5.77;3.07;;;10.70;99.90;;;;;;4978004;28;20189;-79
2023/09/15 01:51:56;;;;;;;3.10;2.60;;;10.70;99.90;;;;;;4978854;28;20198;-78
2023/09/15 01:54:22;;;;;;;4.67;2.77;;;10.60;99.90;;;;;;4978947;28;20174;-79
2023/09/15 01:56:51;;;;;;;7.77;2.87;;;10.60;99.90;;;;;;4980152;28;20207;-80
2023/09/15 01:59:16;;;;;;;3.93;2.70;;;10.60;99.90;;;;;;4981124;28;20209;-78
2023/09/15 02:01:42;;;;;;;7.70;2.50;;;10.60;99.90;;;;;;4980565;28;20190;-79
2023/09/15 02:04:09;;;;;;;7.47;2.53;;;10.60;99.90;;;;;;4980305;28;20574;-78
2023/09/15 02:06:35;;;;;;;5.07;2.77;;;10.60;99.90;;;;;;4978831;28;20166;-78
2023/09/15 02:09:00;;;;;;;7.07;3.43;;;10.60;99.90;;;;;;4979077;28;20188;-79
2023/09/15 02:11:26;;;;;;;5.97;2.67;;;10.60;99.90;;;;;;4979456;28;20194;-79
2023/09/15 02:13:51;;;;;;;5.80;2.87;;;10.50;99.90;;;;;;4979582;28;20206;-79
2023/09/15 02:16:17;;;;;;;6.07;2.97;;;10.50;99.90;;;;;;4979773;28;20170;-78
2023/09/15 02:18:43;;;;;;;5.90;2.93;;;10.50;99.90;;;;;;4978818;28;20202;-78
2023/09/15 02:21:08;;;;;;;4.30;2.43;;;10.50;99.90;;;;;;4980522;28;20186;-78
2023/09/15 02:23:34;;;;;;;3.77;2.97;;;10.50;99.90;;;;;;4978526;28;20181;-78
2023/09/15 02:26:04;;;;;;;5.83;2.87;;;10.50;99.90;;;;;;4980741;28;20181;-79
2023/09/15 02:28:30;;;;;;;10.10;3.13;;;10.40;99.90;;;;;;4979275;28;20174;-78
2023/09/15 02:30:56;;;;;;;3.47;2.87;;;10.40;99.90;;;;;;4978938;28;20221;-79
2023/09/15 02:33:22;;;;;;;6.37;3.20;;;10.40;99.90;;;;;;4980029;28;20234;-79
2023/09/15 02:35:48;;;;;;;7.97;2.97;;;10.40;99.90;;;;;;4978893;28;20175;-79
2023/09/15 02:38:14;;;;;;;5.30;2.70;;;10.40;99.90;;;;;;4979394;28;20388;-79
2023/09/15 02:40:39;;;;;;;3.70;2.70;;;10.30;99.90;;;;;;4978761;28;20175;-79
2023/09/15 02:43:05;;;;;;;4.10;2.80;;;10.30;99.90;;;;;;4978392;28;20555;-78
2023/09/15 02:45:37;;;;;;;6.60;2.60;;;10.30;99.90;;;;;;4977449;28;20170;-78
2023/09/15 02:48:03;;;;;;;7.10;2.83;;;10.30;99.90;;;;;;4977429;28;20159;-78
2023/09/15 02:50:29;;;;;;;5.33;2.53;;;10.30;99.90;;;;;;4976495;28;20532;-78
2023/09/15 02:52:55;;;;;;;6.40;2.87;;;10.20;99.90;;;;;;4977662;28;20198;-78
2023/09/15 02:55:21;;;;;;;5.93;2.70;;;10.30;99.90;;;;;;4979282;28;20178;-78
2023/09/15 02:57:51;;;;;;;3.87;2.60;;;10.20;99.90;;;;;;4980048;28;20174;-78
2023/09/15 03:00:17;;;;;;;7.43;2.43;;;10.20;99.90;;;;;;4977825;28;20198;-78
2023/09/15 03:02:44;;;;;;;2.57;2.30;;;10.20;99.90;;;;;;4978787;28;20205;-79
2023/09/15 03:05:09;;;;;;;6.47;2.80;;;10.20;99.90;;;;;;4983138;28;20242;-79
2023/09/15 03:07:39;;;;;;;4.80;3.20;;;10.10;99.90;;;;;;4981776;28;20262;-78
2023/09/15 03:10:06;;;;;;;3.67;2.50;;;10.10;99.90;;;;;;4982216;28;20557;-78
2023/09/15 03:12:32;;;;;;;6.33;2.60;;;10.10;99.90;;;;;;4981366;28;20285;-78
2023/09/15 03:14:58;;;;;;;7.57;2.70;;;10.10;99.90;;;;;;4982156;28;20581;-78
2023/09/15 03:17:23;;;;;;;7.27;2.40;;;10.10;99.90;;;;;;4982513;28;20685;-78
2023/09/15 03:19:49;;;;;;;6.17;2.60;;;10.00;99.90;;;;;;4979890;28;20198;-79
2023/09/15 03:22:14;;;;;;;6.27;2.30;;;10.00;99.90;;;;;;4980553;28;20209;-78
2023/09/15 03:24:42;;;;;;;3.23;2.60;;;10.00;99.90;;;;;;4982464;28;20254;-78
2023/09/15 03:27:08;;;;;;;7.37;2.87;;;10.00;99.90;;;;;;4980394;28;20265;-78
2023/09/15 03:29:34;;;;;;;8.47;3.10;;;10.00;99.90;;;;;;4982136;28;20662;-78
2023/09/15 03:32:00;;;;;;;3.30;2.20;;;10.00;99.90;;;;;;4981099;28;20198;-79
2023/09/15 03:34:25;;;;;;;4.33;2.30;;;9.90;99.90;;;;;;4983087;28;20250;-78
2023/09/15 03:36:51;;;;;;;3.97;2.40;;;9.90;99.90;;;;;;4982080;28;20206;-78
2023/09/15 03:39:17;;;;;;;3.57;2.50;;;9.90;99.90;;;;;;4983605;28;20209;-78
2023/09/15 03:41:43;;;;;;;9.97;2.70;;;9.90;99.90;;;;;;4983695;28;20613;-79
2023/09/15 03:44:08;;;;;;;7.27;2.77;;;9.80;99.90;;;;;;4985512;28;20657;-78
2023/09/15 03:46:35;;;;;;;5.17;2.47;;;9.80;99.90;;;;;;4985118;28;20206;-78
2023/09/15 03:49:01;;;;;;;7.47;2.40;;;9.90;99.90;;;;;;4981251;28;20189;-79
2023/09/15 03:51:27;;;;;;;5.47;2.43;;;9.80;99.90;;;;;;4982960;28;20222;-79
2023/09/15 03:53:52;;;;;;;5.83;2.70;;;9.80;99.90;;;;;;4980813;28;20175;-78
2023/09/15 03:56:18;;;;;;;8.17;2.73;;;9.80;99.90;;;;;;4981376;28;20725;-78
2023/09/15 03:58:43;;;;;;;4.40;2.83;;;9.80;99.90;;;;;;4981214;28;20198;-78
2023/09/15 04:01:09;;;;;;;4.60;2.10;;;9.80;99.90;;;;;;4981368;28;20190;-78
2023/09/15 04:03:35;;;;;;;9.40;2.73;;;9.70;99.90;;;;;;4982681;28;20265;-79
2023/09/15 04:06:00;;;;;;;5.03;2.60;;;9.70;99.90;;;;;;4980569;28;20508;-79
2023/09/15 04:08:26;;;;;;;3.00;2.33;;;9.70;99.90;;;;;;4981281;28;20253;-79
2023/09/15 04:10:51;;;;;;;3.07;2.13;;;9.70;99.90;;;;;;4979754;28;20745;-79
2023/09/15 04:13:17;;;;;;;4.10;2.70;;;9.60;99.90;;;;;;4981640;28;20170;-79
2023/09/15 04:15:42;;;;;;;3.80;2.67;;;9.60;99.90;;;;;;4981049;28;20175;-78
2023/09/15 04:18:08;;;;;;;6.07;2.80;;;9.60;99.90;;;;;;4980527;28;20178;-80
2023/09/15 04:20:34;;;;;;;5.40;2.50;;;9.60;99.90;;;;;;4981127;28;20202;-80
2023/09/15 04:23:00;;;;;;;7.03;2.60;;;9.60;99.90;;;;;;4980486;28;20170;-78
2023/09/15 04:25:25;;;;;;;6.07;2.57;;;9.60;99.90;;;;;;4981256;28;20177;-78
2023/09/15 04:27:51;;;;;;;4.97;2.77;;;9.60;99.90;;;;;;4979178;28;20581;-78
2023/09/15 04:30:16;;;;;;;6.53;2.60;;;9.60;99.90;;;;;;4979240;28;20185;-78
2023/09/15 04:32:42;;;;;;;5.90;2.60;;;9.60;99.90;;;;;;4981337;28;20209;-79
2023/09/15 04:35:12;;;;;;;4.87;2.60;;;9.60;99.90;;;;;;4979851;28;20184;-78
2023/09/15 04:37:38;;;;;;;6.07;2.70;;;9.60;99.90;;;;;;4980284;28;20198;-79
2023/09/15 04:40:06;;;;;;;7.77;2.70;;;9.60;99.90;;;;;;4982603;28;20200;-78
2023/09/15 04:42:33;;;;;;;3.23;2.50;;;9.60;99.90;;;;;;4982295;28;20190;-79
2023/09/15 04:45:00;;;;;;;10.80;2.40;;;9.60;99.90;;;;;;4980254;28;20205;-79
2023/09/15 04:47:36;;;;;;;3.93;2.60;;;9.60;99.90;;;;;;4981132;28;20178;-79
2023/09/15 04:50:02;;;;;;;8.40;2.70;;;9.60;99.90;;;;;;4982410;28;20174;-79
2023/09/15 04:52:27;;;;;;;9.00;2.80;;;9.50;99.90;;;;;;4980886;28;20209;-79
2023/09/15 04:54:53;;;;;;;6.43;2.60;;;9.50;99.90;;;;;;4982201;28;20721;-78
2023/09/15 04:57:22;;;;;;;3.93;2.73;;;9.50;99.90;;;;;;4982129;28;20202;-79
2023/09/15 04:59:48;;;;;;;4.67;2.60;;;9.50;99.90;;;;;;4982431;28;20198;-79
2023/09/15 05:02:14;;;;;;;5.60;2.40;;;9.50;99.90;;;;;;4981252;28;20198;-79
2023/09/15 05:04:40;;;;;;;8.80;2.93;;;9.50;99.90;;;;;;4978010;28;20171;-81
2023/09/15 05:07:06;;;;;;;5.57;2.70;;;9.50;99.90;;;;;;4978410;28;20186;-82
2023/09/15 05:09:32;;;;;;;5.17;2.90;;;9.40;99.90;;;;;;4978676;28;20178;-81
2023/09/15 05:11:57;;;;;;;7.57;2.27;;;9.40;99.90;;;;;;4977674;28;20204;-82
2023/09/15 05:14:23;;;;;;;3.73;2.30;;;9.40;99.90;;;;;;4978412;28;20554;-81
2023/09/15 05:16:49;;;;;;;5.93;2.53;;;9.40;99.90;;;;;;4977130;28;20185;-81
2023/09/15 05:19:14;;;;;;;4.80;3.10;;;9.40;99.90;;;;;;4977999;28;20293;-82
2023/09/15 05:21:41;;;;;;;5.50;2.57;;;9.30;99.90;;;;;;4978736;28;20270;-82
2023/09/15 05:24:07;;;;;;;7.10;2.60;;;9.30;99.90;;;;;;4980088;28;20618;-80
2023/09/15 05:26:32;;;;;;;2.87;2.10;;;9.30;99.90;;;;;;4980167;28;20259;-80
2023/09/15 05:28:58;;;;;;;4.93;2.40;;;9.30;99.90;;;;;;4980361;28;20650;-80
2023/09/15 05:31:25;;;;;;;5.73;2.43;;;9.30;99.90;;;;;;4978830;28;20623;-80
2023/09/15 05:33:57;;;;;;;2.97;2.23;;;9.30;99.90;;;;;;4980589;28;20178;-79
2023/09/15 05:36:23;;;;;;;3.23;2.33;;;9.30;99.90;;;;;;4980072;28;20193;-79
2023/09/15 05:38:49;;;;;;;4.70;2.40;;;9.30;99.90;;;;;;4979404;28;20281;-79
2023/09/15 05:41:15;;;;;;;5.07;2.50;;;9.40;99.90;;;;;;4980421;28;20269;-79
2023/09/15 05:43:40;;;;;;;9.40;2.33;;;9.30;99.90;;;;;;4975612;28;20174;-78
2023/09/15 05:46:07;;;;;;;6.03;2.50;;;9.40;99.90;;;;;;4975941;28;20178;-78
2023/09/15 05:48:32;;;;;;;4.63;2.43;;;9.40;99.90;;;;;;4974516;28;20178;-78
2023/09/15 05:50:58;;;;;;;4.47;2.13;;;9.40;99.90;;;;;;4975146;28;20206;-78
2023/09/15 05:53:23;;;;;;;3.63;2.00;;;9.40;99.90;;;;;;4974575;28;20178;-78
2023/09/15 05:55:49;;;;;;;4.17;2.33;;;9.40;99.90;;;;;;4976102;28;20170;-80
2023/09/15 05:58:15;;;;;;;3.83;2.20;;;9.40;99.90;;;;;;4976274;28;20189;-78
2023/09/15 06:00:41;;;;;;;4.47;2.17;;;9.30;99.90;;;;;;4975113;28;20650;-78
2023/09/15 06:03:07;;;;;;;6.33;3.00;;;9.40;99.90;;;;;;4975223;28;20183;-80
2023/09/15 06:05:33;;;;;;;5.47;2.43;;;9.40;99.90;;;;;;4975030;28;20186;-78
2023/09/15 06:07:59;;;;;;;3.07;2.37;;;9.50;99.90;;;;;;4975931;28;20298;-78
2023/09/15 06:10:25;;;;;;;5.03;2.60;;;9.50;99.90;;;;;;4974558;28;20190;-80
2023/09/15 06:12:51;;;;;;;4.73;2.47;;;9.60;99.90;;;;;;4974572;28;20202;-78
2023/09/15 06:15:18;;;;;;;7.90;2.43;;;9.60;99.90;;;;;;4974595;28;20178;-78
2023/09/15 06:17:44;;;;;;;6.17;2.60;;;9.60;99.90;;;;;;4975660;28;20289;-78
2023/09/15 06:20:09;;;;;;;5.00;2.43;;;9.60;99.90;;;;;;4977283;28;20212;-78
2023/09/15 06:22:35;;;;;;;4.13;2.73;;;9.60;99.90;;;;;;4976930;28;20253;-78
2023/09/15 06:25:01;;;;;;;3.27;2.50;;;9.70;99.90;;;;;;4977359;28;20643;-78
2023/09/15 06:27:27;;;;;;;6.37;2.20;;;9.70;99.90;;;;;;4975978;28;20197;-78
2023/09/15 06:29:53;;;;;;;5.70;2.40;;;9.70;99.90;;;;;;4976800;28;20193;-78
2023/09/15 06:32:18;;;;;;;5.57;2.20;;;9.70;99.90;;;;;;4974963;28;20209;-79
2023/09/15 06:34:44;;;;;;;10.33;2.50;;;9.80;99.90;;;;;;4976970;28;20693;-78
2023/09/15 06:37:10;;;;;;;7.03;2.30;;;9.80;99.90;;;;;;4976813;28;20182;-78
2023/09/15 06:39:36;;;;;;;3.40;2.30;;;9.90;99.90;;;;;;4945192;28;1041681;-79
2023/09/15 06:42:05;;;;;;;6.33;2.30;;;9.90;99.90;;;;;;4978064;28;20286;-77
2023/09/15 06:44:35;;;;;;;5.97;2.20;;;9.90;99.90;;;;;;4977551;28;20201;-77
2023/09/15 06:47:01;;;;;;;5.83;2.53;;;10.00;99.90;;;;;;4977782;28;20166;-77
2023/09/15 06:49:27;;;;;;;5.13;2.43;;;10.00;99.90;;;;;;4977532;28;20240;-78
2023/09/15 06:51:53;;;;;;;4.10;2.17;;;10.10;99.90;;;;;;4976361;28;20568;-77
2023/09/15 06:54:19;;;;;;;5.63;2.47;;;10.10;99.90;;;;;;4977524;28;20232;-78
2023/09/15 06:56:45;;;;;;;10.13;2.73;;;10.20;99.90;;;;;;4977375;28;20182;-77
2023/09/15 06:59:11;;;;;;;4.10;2.60;;;10.20;99.90;;;;;;4977279;28;20621;-77
2023/09/15 07:01:36;;;;;;;4.73;2.87;;;10.30;99.90;;;;;;4977322;28;20194;-78
2023/09/15 07:04:03;;;;;;;5.77;2.50;;;10.40;99.90;;;;;;4975983;28;20208;-77
2023/09/15 07:06:29;;;;;;;4.60;2.33;;;10.40;99.90;;;;;;4977203;28;20221;-78
2023/09/15 07:08:54;;;;;;;8.93;2.80;;;10.50;99.90;;;;;;4977037;28;20174;-77
2023/09/15 07:11:20;;;;;;;8.33;2.53;;;10.60;99.90;;;;;;4975635;28;20281;-77
2023/09/15 07:13:45;;;;;;;9.03;2.43;;;10.70;99.90;;;;;;4975607;28;20635;-77
2023/09/15 07:16:11;;;;;;;4.83;2.90;;;10.70;99.90;;;;;;4977045;28;20173;-78
2023/09/15 07:18:37;;;;;;;6.13;2.77;;;10.80;99.90;;;;;;4977449;28;20171;-77
2023/09/15 07:21:02;;;;;;;5.17;3.33;;;10.90;99.90;;;;;;4976638;28;20222;-78
2023/09/15 07:23:28;;;;;;;5.63;3.00;;;11.00;99.90;;;;;;4978139;28;20179;-77
2023/09/15 07:25:53;;;;;;;5.23;2.80;;;11.10;99.90;;;;;;4978354;28;20170;-78
2023/09/15 07:28:20;;;;;;;6.10;3.70;;;11.20;99.90;;;;;;4977343;28;20174;-77
2023/09/15 07:30:45;;;;;;;5.77;3.43;;;11.30;99.90;;;;;;4976505;28;20182;-78
2023/09/15 07:33:11;;;;;;;9.50;3.60;;;11.40;99.90;;;;;;4976144;28;20174;-77
2023/09/15 07:35:37;;;;;;;6.27;3.43;;;11.50;99.90;;;;;;4976571;28;20187;-78
2023/09/15 07:38:05;;;;;;;10.87;3.70;;;11.70;99.90;;;;;;4976312;28;20270;-78
2023/09/15 07:40:31;;;;;;;8.77;3.80;;;11.80;99.90;;;;;;4976454;28;20308;-77
2023/09/15 07:42:57;;;;;;;8.37;4.30;;;12.00;99.90;;;;;;4977698;28;20171;-77
2023/09/15 07:45:23;;;;;;;10.10;5.00;;;12.00;99.90;;;;;;4976666;28;20229;-78
2023/09/15 07:47:49;;;;;;;10.63;4.33;;;12.20;99.90;;;;;;4977455;28;20216;-79
2023/09/15 07:50:17;;;;;;;9.63;4.43;;;12.30;99.90;;;;;;4977863;28;20179;-77
2023/09/15 07:52:44;;;;;;;16.30;4.57;;;12.40;99.90;;;;;;4978077;28;20693;-77
2023/09/15 07:55:10;;;;;;;11.13;4.43;;;12.60;99.90;;;;;;4976033;28;20605;-77
2023/09/15 07:57:37;;;;;;;9.13;4.37;;;12.60;99.90;;;;;;4977630;28;20187;-77
2023/09/15 08:00:04;;;;;;;8.47;4.10;;;12.80;99.90;;;;;;4976716;28;20255;-77
2023/09/15 08:02:31;;;;;;;11.27;4.47;;;12.90;99.90;;;;;;4976878;28;20222;-78
2023/09/15 08:04:57;;;;;;;7.93;3.93;;;13.00;99.90;;;;;;4976767;28;20186;-79
2023/09/15 08:07:22;;;;;;;9.73;4.10;;;13.10;99.90;;;;;;4976602;28;20186;-78
2023/09/15 08:09:48;;;;;;;9.87;4.23;;;13.30;99.90;;;;;;4977553;28;20182;-78
2023/09/15 08:12:15;;;;;;;10.63;4.70;;;13.40;99.90;;;;;;4977184;28;20237;-79
2023/09/15 08:14:40;;;;;;;8.47;3.77;;;13.50;99.90;;;;;;4977296;28;20195;-78
2023/09/15 08:17:07;;;;;;;6.70;3.53;;;13.50;99.90;;;;;;4979127;28;20182;-78
2023/09/15 08:19:32;;;;;;;7.27;3.07;;;13.60;99.90;;;;;;4977642;28;20210;-79
2023/09/15 08:22:00;;;;;;;9.30;2.87;;;13.70;99.90;;;;;;4977459;28;20194;-79
2023/09/15 08:24:26;;;;;;;7.60;3.17;;;13.70;99.90;;;;;;4979898;28;20178;-80
2023/09/15 08:26:51;;;;;;;13.93;3.37;;;13.80;99.90;;;;;;4982809;28;20180;-81
2023/09/15 08:29:17;;;;;;;8.77;2.90;;;13.80;99.90;;;;;;4981536;28;20190;-80
2023/09/15 08:31:43;;;;;;;7.73;3.07;;;13.90;99.90;;;;;;4983016;28;20194;-80
2023/09/15 08:34:08;;;;;;;8.73;2.60;;;14.00;99.90;;;;;;4981462;28;20728;-80
2023/09/15 08:36:34;;;;;;;8.57;2.77;;;14.00;99.90;;;;;;4979918;28;20178;-80
2023/09/15 08:38:59;;;;;;;6.60;2.93;;;14.00;99.90;;;;;;4982001;28;20214;-80
2023/09/15 08:41:32;;;;;;;5.47;2.43;;;14.20;99.90;;;;;;4983875;28;20268;-80
2023/09/15 08:43:58;;;;;;;10.27;2.97;;;14.20;99.90;;;;;;4981485;28;20213;-80
2023/09/15 08:46:25;;;;;;;7.10;2.83;;;14.40;99.90;;;;;;4979605;28;20170;-80
2023/09/15 08:48:51;;;;;;;8.77;2.90;;;14.40;99.90;;;;;;4980069;28;20605;-80
2023/09/15 08:51:18;;;;;;;8.90;2.60;;;14.60;99.90;;;;;;4981922;28;20200;-79
2023/09/15 08:53:46;;;;;;;7.33;2.37;;;14.70;99.90;;;;;;4984006;28;20540;-80
2023/09/15 08:56:12;;;;;;;6.00;2.57;;;14.80;99.90;;;;;;4984443;28;20174;-80
2023/09/15 08:58:39;;;;;;;8.63;2.20;;;15.00;99.90;;;;;;4981167;28;20673;-80
2023/09/15 09:01:07;;;;;;;9.17;2.90;;;15.20;99.90;;;;;;4980480;28;20194;-80
2023/09/15 09:03:39;;;;;;;5.17;2.17;;;15.10;99.90;;;;;;4980651;28;20221;-80
2023/09/15 09:06:09;;;;;;;4.13;1.97;;;15.30;99.90;;;;;;4981176;28;20181;-80
2023/09/15 09:08:40;;;;;;;3.90;2.23;;;15.40;99.90;;;;;;4979108;28;20270;-80
2023/09/15 09:11:07;;;;;;;7.27;2.50;;;15.40;99.90;;;;;;4981683;28;20201;-82
2023/09/15 09:13:33;;;;;;;3.80;2.17;;;15.50;99.90;;;;;;4979005;28;20194;-82
2023/09/15 09:15:59;;;;;;;4.50;2.20;;;15.60;99.90;;;;;;4978434;28;20277;-82
2023/09/15 09:18:25;;;;;;;5.10;1.93;;;15.60;99.90;;;;;;4978915;28;20170;-82
2023/09/15 09:20:51;;;;;;;3.57;2.10;;;15.70;99.90;;;;;;4978938;28;20171;-82
2023/09/15 09:23:18;;;;;;;8.33;2.40;;;15.80;99.90;;;;;;4980018;28;20665;-82
2023/09/15 09:25:45;;;;;;;5.13;2.03;;;15.90;99.90;;;;;;4979129;28;20181;-82
2023/09/15 09:28:11;;;;;;;5.90;2.50;;;16.00;99.90;;;;;;4979395;28;20238;-82
2023/09/15 09:30:36;;;;;;;4.80;2.60;;;16.20;99.90;;;;;;4978186;28;20174;-83
2023/09/15 09:33:03;;;;;;;7.27;2.73;;;16.20;99.90;;;;;;4978814;28;20270;-82
2023/09/15 09:35:28;;;;;;;5.03;2.53;;;16.30;99.90;;;;;;4980342;28;20246;-82
2023/09/15 09:37:56;;;;;;;6.73;2.70;;;16.50;99.90;;;;;;4981076;28;20300;-82
2023/09/15 09:40:22;;;;;;;7.60;3.40;;;16.50;99.90;;;;;;4979561;28;20678;-81
2023/09/15 09:42:49;;;;;;;5.53;2.47;;;16.50;99.90;;;;;;4982190;28;20277;-82
2023/09/15 09:45:15;;;;;;;8.27;2.97;;;16.60;99.90;;;;;;4980218;28;20178;-81
2023/09/15 09:47:42;;;;;;;5.10;2.83;;;16.70;99.90;;;;;;4979766;28;20198;-82
2023/09/15 09:50:10;;;;;;;5.47;2.43;;;16.90;99.90;;;;;;4981009;28;20242;-85
2023/09/15 09:52:36;;;;;;;7.63;2.90;;;16.90;99.90;;;;;;4981056;28;20202;-83
2023/09/15 09:55:07;;;;;;;6.83;2.90;;;16.90;99.90;;;;;;4990454;28;20186;-84
2023/09/15 09:57:33;;;;;;;4.80;2.53;;;17.00;99.90;;;;;;4984740;28;20170;-83
2023/09/15 09:59:59;;;;;;;5.63;2.63;;;17.10;99.90;;;;;;4977750;28;20242;-83
2023/09/15 10:02:26;;;;;;;5.70;3.10;;;17.10;99.90;;;;;;4976610;28;20200;-80
2023/09/15 10:04:53;;;;;;;4.40;3.00;;;17.20;99.90;;;;;;4977802;28;20185;-80
2023/09/15 10:07:18;;;;;;;6.23;3.00;;;17.40;99.90;;;;;;4976949;28;20174;-81
2023/09/15 10:09:45;;;;;;;5.93;2.60;;;17.40;99.90;;;;;;4978197;28;20181;-81
2023/09/15 10:12:12;;;;;;;5.77;2.60;;;17.50;99.90;;;;;;4978017;28;20273;-80
2023/09/15 10:14:39;;;;;;;4.73;2.90;;;17.60;99.90;;;;;;4977426;28;20178;-80
2023/09/15 10:17:05;;;;;;;4.50;2.80;;;17.70;99.90;;;;;;4976155;28;20594;-80
2023/09/15 10:19:31;;;;;;;5.53;2.87;;;17.80;99.90;;;;;;4978062;28;20194;-80
2023/09/15 10:21:57;;;;;;;6.77;2.50;;;17.90;99.90;;;;;;4977959;28;20190;-80
2023/09/15 10:24:23;;;;;;;6.87;2.63;;;17.90;99.90;;;;;;4976555;28;20181;-80
2023/09/15 10:26:48;;;;;;;4.07;2.70;;;18.00;99.90;;;;;;4978292;28;20542;-81
2023/09/15 10:29:15;;;;;;;8.53;3.20;;;18.00;1.00;;;;;;4977209;28;20713;-81
2023/09/15 10:31:46;;;;;;;4.00;2.60;;;18.10;40.30;;;;;;4976782;28;20202;-80
2023/09/15 10:34:14;;;;;;;3.40;2.60;;;18.20;78.80;;;;;;4976511;28;20626;-80
2023/09/15 10:36:40;;;;;;;5.27;2.67;;;18.30;1.00;;;;;;4976781;28;20182;-81
2023/09/15 10:39:17;;;;;;;5.70;2.77;;;18.40;99.90;;;;;;4976893;28;20217;-82
2023/09/15 10:41:44;;;;;;;4.03;2.57;;;18.40;1.00;;;;;;4977425;28;20194;-82
2023/09/15 10:44:10;;;;;;;3.30;2.40;;;18.50;99.90;;;;;;4977378;28;20229;-82
2023/09/15 10:46:41;;;;;;;4.07;2.30;;;18.60;1.00;;;;;;4977260;28;20240;-83
2023/09/15 10:49:18;;;;;;;3.50;2.30;;;18.60;99.90;;;;;;4980080;28;20237;-82
2023/09/15 10:51:58;;;;;;;5.87;2.67;;;18.70;1.00;;;;;;4978883;28;20572;-82
2023/09/15 10:54:38;;;;;;;5.67;2.57;;;18.80;1.00;;;;;;4979766;28;20189;-83
2023/09/15 10:57:03;;;;;;;3.90;2.30;;;18.70;1.00;;;;;;4978704;28;20197;-83
2023/09/15 10:59:29;;;;;;;5.90;2.53;;;18.90;1.00;;;;;;4979222;28;20669;-84
2023/09/15 11:01:55;;;;;;;4.57;2.30;;;18.90;1.00;;;;;;4976975;28;20200;-82
2023/09/15 11:04:21;;;;;;;5.17;2.30;;;19.10;1.00;;;;;;4978418;28;20179;-82
2023/09/15 11:06:52;;;;;;;3.80;2.00;;;19.00;99.90;;;;;;4980487;28;20207;-82
2023/09/15 11:09:19;;;;;;;4.70;2.37;;;19.00;98.80;;;;;;4979967;28;20170;-82
2023/09/15 11:11:49;;;;;;;2.67;2.00;;;19.20;1.00;;;;;;4979799;28;20226;-83
2023/09/15 11:14:20;;;;;;;5.03;2.30;;;19.30;1.00;;;;;;4981176;28;20684;-82
2023/09/15 11:16:50;;;;;;;3.83;2.40;;;19.40;1.00;;;;;;4980037;28;20189;-83
2023/09/15 11:19:17;;;;;;;3.43;2.13;;;19.30;1.00;;;;;;4979405;28;20242;-83
2023/09/15 11:21:47;;;;;;;3.20;2.00;;;19.40;1.00;;;;;;4980487;28;20194;-82
2023/09/15 11:24:13;;;;;;;4.63;2.27;;;19.40;1.00;;;;;;4982956;28;20589;-83
2023/09/15 11:26:50;;;;;;;2.67;1.90;;;19.60;99.90;;;;;;4983894;28;20202;-83
2023/09/15 11:29:26;;;;;;;6.90;2.20;;;19.60;1.00;;;;;;4984526;28;20181;-82
2023/09/15 11:31:53;;;;;;;2.40;1.70;;;19.60;1.00;;;;;;4985236;28;20200;-82
2023/09/15 11:34:19;;;;;;;4.57;2.07;;;19.70;1.00;;;;;;4985432;28;20178;-83
2023/09/15 11:36:45;;;;;;;5.70;2.40;;;19.90;1.00;;;;;;4983875;28;20182;-82
2023/09/15 11:39:13;;;;;;;6.20;2.23;;;19.90;1.00;;;;;;4985521;28;20206;-82
2023/09/15 11:41:44;;;;;;;2.60;1.63;;;19.80;1.00;;;;;;4984792;28;20200;-83
2023/09/15 11:44:10;;;;;;;2.70;1.57;;;19.90;1.00;;;;;;4986384;28;20151;-83
2023/09/15 11:46:38;;;;;;;3.53;1.60;;;19.90;1.00;;;;;;4985105;28;20720;-82
2023/09/15 11:49:04;;;;;;;2.70;1.63;;;20.00;1.00;;;;;;4985229;28;20216;-83
2023/09/15 11:51:31;;;;;;;2.43;1.80;;;20.00;99.90;;;;;;4986114;28;20195;-83
2023/09/15 11:54:00;;;;;;;3.03;1.80;;;20.20;1.00;;;;;;4985808;28;20711;-81
2023/09/15 11:56:26;;;;;;;5.17;2.00;;;20.10;1.00;;;;;;4988430;28;20186;-82
2023/09/15 11:58:52;;;;;;;3.53;1.83;;;20.10;99.90;;;;;;4994999;28;20206;-82
2023/09/15 12:01:18;;;;;;;2.33;1.70;;;20.30;99.90;;;;;;4993770;28;20244;-81
2023/09/15 12:03:48;;;;;;;3.47;1.90;;;20.20;3.20;;;;;;4995484;28;20186;-84
2023/09/15 12:06:17;;;;;;;4.03;1.67;;;20.10;94.90;;;;;;4997378;28;20166;-83
2023/09/15 12:08:50;;;;;;;3.30;2.07;;;20.30;99.90;;;;;;4996268;28;20167;-84
2023/09/15 12:11:17;;;;;;;3.40;1.67;;;20.30;21.20;;;;;;4994152;28;20198;-85
2023/09/15 12:13:43;;;;;;;3.73;1.83;;;20.40;99.90;;;;;;4985860;28;20181;-85
2023/09/15 12:16:17;;;;;;;3.77;1.70;;;20.40;99.90;;;;;;4978801;28;20174;-83
2023/09/15 12:18:45;;;;;;;2.37;1.20;;;20.40;1.00;;;;;;4978396;28;20171;-83
2023/09/15 12:21:15;;;;;;;2.80;1.73;;;20.60;1.00;;;;;;4979086;28;20288;-84
2023/09/15 12:23:40;;;;;;;2.20;1.50;;;20.60;1.00;;;;;;4979936;28;20167;-84
2023/09/15 12:26:06;;;;;;;2.73;1.50;;;20.70;1.00;;;;;;4978548;28;20241;-81
2023/09/15 12:28:32;;;;;;;6.40;1.90;;;20.70;99.90;;;;;;4980057;28;20174;-81
2023/09/15 12:31:01;;;;;;;4.03;1.60;;;20.80;1.00;;;;;;4977475;28;20286;-81
2023/09/15 12:33:29;;;;;;;3.00;1.70;;;20.70;99.90;;;;;;4978071;28;20182;-81
2023/09/15 12:35:56;;;;;;;3.00;1.57;;;20.90;99.90;;;;;;4975953;28;20201;-85
2023/09/15 12:38:21;;;;;;;1.70;1.53;;;20.90;1.00;;;;;;4978596;28;20197;-85
2023/09/15 12:40:50;;;;;;;2.83;1.53;;;20.90;1.00;;;;;;4979115;28;20225;-84
2023/09/15 12:43:17;;;;;;;2.17;1.40;;;20.90;1.00;;;;;;4977933;28;20178;-80
2023/09/15 12:45:42;;;;;;;1.70;1.40;;;21.00;99.90;;;;;;4981313;28;20354;-81
2023/09/15 12:48:11;;;;;;;1.27;1.10;;;21.00;99.90;;;;;;4982211;28;20662;-81
2023/09/15 12:50:37;;;;;;;2.57;1.70;;;21.10;99.90;;;;;;4981883;28;20166;-82